sensor_id;sensor_type;location;lat;lon;timestamp;P1;durP1;ratioP1;P2;durP2;ratioP2
8113;SDS011;4099;52.684;9.918;2023-08-06T00:01:48;3.53;;;2.97;;
8113;SDS011;4099;52.684;9.918;2023-08-06T00:06:51;3.47;;;3.17;;
8113;SDS011;4099;52.684;9.918;2023-08-06T00:11:53;3.57;;;3.27;;
8113;SDS011;4099;52.684;9.918;2023-08-06T00:16:55;3.77;;;3.33;;
8113;SDS011;4099;52.684;9.918;2023-08-06T00:21:58;4.80;;;3.53;;
8113;SDS011;4099;52.684;9.918;2023-08-06T00:26:59;3.90;;;3.50;;
8113;SDS011;4099;52.684;9.918;2023-08-06T00:32:02;3.40;;;3.10;;
8113;SDS011;4099;52.684;9.918;2023-08-06T00:37:06;5.67;;;3.40;;
8113;SDS011;4099;52.684;9.918;2023-08-06T00:42:07;3.80;;;3.40;;
8113;SDS011;4099;52.684;9.918;2023-08-06T00:47:09;4.20;;;3.60;;
8113;SDS011;4099;52.684;9.918;2023-08-06T00:52:13;3.97;;;3.20;;
8113;SDS011;4099;52.684;9.918;2023-08-06T00:57:15;4.23;;;3.80;;
8113;SDS011;4099;52.684;9.918;2023-08-06T01:02:17;3.97;;;3.57;;
8113;SDS011;4099;52.684;9.918;2023-08-06T01:07:21;4.77;;;3.70;;
8113;SDS011;4099;52.684;9.918;2023-08-06T01:12:34;5.20;;;3.93;;
8113;SDS011;4099;52.684;9.918;2023-08-06T01:17:43;3.93;;;3.63;;
8113;SDS011;4099;52.684;9.918;2023-08-06T01:22:47;5.33;;;4.73;;
8113;SDS011;4099;52.684;9.918;2023-08-06T01:27:50;4.53;;;4.13;;
8113;SDS011;4099;52.684;9.918;2023-08-06T01:32:53;5.00;;;4.60;;
8113;SDS011;4099;52.684;9.918;2023-08-06T01:38:02;5.30;;;4.80;;
8113;SDS011;4099;52.684;9.918;2023-08-06T01:43:04;5.63;;;5.07;;
8113;SDS011;4099;52.684;9.918;2023-08-06T01:48:06;6.90;;;5.93;;
8113;SDS011;4099;52.684;9.918;2023-08-06T01:53:10;7.80;;;6.80;;
8113;SDS011;4099;52.684;9.918;2023-08-06T01:58:11;14.17;;;7.30;;
8113;SDS011;4099;52.684;9.918;2023-08-06T02:03:13;8.10;;;6.90;;
8113;SDS011;4099;52.684;9.918;2023-08-06T02:08:17;8.77;;;6.50;;
8113;SDS011;4099;52.684;9.918;2023-08-06T02:13:20;7.77;;;6.20;;
8113;SDS011;4099;52.684;9.918;2023-08-06T02:18:22;6.83;;;5.63;;
8113;SDS011;4099;52.684;9.918;2023-08-06T02:23:25;7.03;;;6.30;;
8113;SDS011;4099;52.684;9.918;2023-08-06T02:28:27;7.47;;;6.63;;
8113;SDS011;4099;52.684;9.918;2023-08-06T02:33:29;7.20;;;6.50;;
8113;SDS011;4099;52.684;9.918;2023-08-06T02:38:32;7.17;;;6.47;;
8113;SDS011;4099;52.684;9.918;2023-08-06T02:43:35;7.43;;;6.73;;
8113;SDS011;4099;52.684;9.918;2023-08-06T02:48:37;7.43;;;6.73;;
8113;SDS011;4099;52.684;9.918;2023-08-06T02:53:40;9.27;;;7.97;;
8113;SDS011;4099;52.684;9.918;2023-08-06T02:58:45;11.13;;;9.23;;
8113;SDS011;4099;52.684;9.918;2023-08-06T03:03:57;8.53;;;7.73;;
8113;SDS011;4099;52.684;9.918;2023-08-06T03:09:07;7.70;;;7.00;;
8113;SDS011;4099;52.684;9.918;2023-08-06T03:14:09;9.40;;;6.57;;
8113;SDS011;4099;52.684;9.918;2023-08-06T03:19:12;7.80;;;6.90;;
8113;SDS011;4099;52.684;9.918;2023-08-06T03:24:15;6.87;;;6.27;;
8113;SDS011;4099;52.684;9.918;2023-08-06T03:29:19;6.60;;;6.00;;
8113;SDS011;4099;52.684;9.918;2023-08-06T03:34:23;7.97;;;6.10;;
8113;SDS011;4099;52.684;9.918;2023-08-06T03:39:27;10.67;;;6.53;;
8113;SDS011;4099;52.684;9.918;2023-08-06T03:44:29;7.67;;;6.63;;
8113;SDS011;4099;52.684;9.918;2023-08-06T03:49:31;7.23;;;6.63;;
8113;SDS011;4099;52.684;9.918;2023-08-06T03:54:35;6.70;;;6.07;;
8113;SDS011;4099;52.684;9.918;2023-08-06T03:59:37;7.00;;;6.40;;
8113;SDS011;4099;52.684;9.918;2023-08-06T04:04:40;7.70;;;6.90;;
8113;SDS011;4099;52.684;9.918;2023-08-06T04:09:53;8.13;;;7.33;;
8113;SDS011;4099;52.684;9.918;2023-08-06T04:14:57;9.10;;;8.20;;
8113;SDS011;4099;52.684;9.918;2023-08-06T04:19:59;8.10;;;7.30;;
8113;SDS011;4099;52.684;9.918;2023-08-06T04:25:04;7.87;;;7.17;;
8113;SDS011;4099;52.684;9.918;2023-08-06T04:30:08;6.90;;;6.30;;
8113;SDS011;4099;52.684;9.918;2023-08-06T04:35:13;8.37;;;7.57;;
8113;SDS011;4099;52.684;9.918;2023-08-06T04:40:17;8.20;;;7.40;;
8113;SDS011;4099;52.684;9.918;2023-08-06T04:45:19;7.77;;;7.00;;
8113;SDS011;4099;52.684;9.918;2023-08-06T04:50:21;7.57;;;6.73;;
8113;SDS011;4099;52.684;9.918;2023-08-06T04:55:24;8.17;;;7.20;;
8113;SDS011;4099;52.684;9.918;2023-08-06T05:00:26;7.80;;;6.90;;
8113;SDS011;4099;52.684;9.918;2023-08-06T05:05:27;7.00;;;6.40;;
8113;SDS011;4099;52.684;9.918;2023-08-06T05:10:31;8.13;;;7.33;;
8113;SDS011;4099;52.684;9.918;2023-08-06T05:15:33;9.63;;;7.60;;
8113;SDS011;4099;52.684;9.918;2023-08-06T05:20:36;8.37;;;7.17;;
8113;SDS011;4099;52.684;9.918;2023-08-06T05:25:39;6.33;;;5.73;;
8113;SDS011;4099;52.684;9.918;2023-08-06T05:30:41;9.53;;;7.60;;
8113;SDS011;4099;52.684;9.918;2023-08-06T05:35:43;9.30;;;8.13;;
8113;SDS011;4099;52.684;9.918;2023-08-06T05:40:46;8.20;;;7.00;;
8113;SDS011;4099;52.684;9.918;2023-08-06T05:45:49;8.10;;;7.23;;
8113;SDS011;4099;52.684;9.918;2023-08-06T05:50:51;11.17;;;8.50;;
8113;SDS011;4099;52.684;9.918;2023-08-06T05:55:57;7.43;;;6.73;;
8113;SDS011;4099;52.684;9.918;2023-08-06T06:00:58;8.90;;;8.00;;
8113;SDS011;4099;52.684;9.918;2023-08-06T06:06:00;8.03;;;7.23;;
8113;SDS011;4099;52.684;9.918;2023-08-06T06:11:04;7.47;;;6.77;;
8113;SDS011;4099;52.684;9.918;2023-08-06T06:16:06;7.83;;;7.13;;
8113;SDS011;4099;52.684;9.918;2023-08-06T06:21:08;8.07;;;7.27;;
8113;SDS011;4099;52.684;9.918;2023-08-06T06:26:12;8.20;;;7.40;;
8113;SDS011;4099;52.684;9.918;2023-08-06T06:31:14;7.07;;;6.47;;
8113;SDS011;4099;52.684;9.918;2023-08-06T06:36:16;6.97;;;6.27;;
8113;SDS011;4099;52.684;9.918;2023-08-06T06:41:20;7.13;;;6.43;;
8113;SDS011;4099;52.684;9.918;2023-08-06T06:46:22;7.50;;;6.80;;
8113;SDS011;4099;52.684;9.918;2023-08-06T06:51:23;7.97;;;7.20;;
8113;SDS011;4099;52.684;9.918;2023-08-06T06:56:27;6.67;;;6.07;;
8113;SDS011;4099;52.684;9.918;2023-08-06T07:01:29;6.30;;;5.80;;
8113;SDS011;4099;52.684;9.918;2023-08-06T07:06:30;7.53;;;6.17;;
8113;SDS011;4099;52.684;9.918;2023-08-06T07:11:34;7.27;;;6.57;;
8113;SDS011;4099;52.684;9.918;2023-08-06T07:16:36;8.47;;;7.67;;
8113;SDS011;4099;52.684;9.918;2023-08-06T07:21:37;7.87;;;7.17;;
8113;SDS011;4099;52.684;9.918;2023-08-06T07:26:41;10.87;;;7.67;;
8113;SDS011;4099;52.684;9.918;2023-08-06T07:31:43;8.73;;;7.93;;
8113;SDS011;4099;52.684;9.918;2023-08-06T07:36:45;8.53;;;7.70;;
8113;SDS011;4099;52.684;9.918;2023-08-06T07:41:49;8.57;;;7.77;;
8113;SDS011;4099;52.684;9.918;2023-08-06T07:46:51;7.93;;;7.10;;
8113;SDS011;4099;52.684;9.918;2023-08-06T07:51:53;6.70;;;6.20;;
8113;SDS011;4099;52.684;9.918;2023-08-06T07:56:57;8.17;;;7.47;;
8113;SDS011;4099;52.684;9.918;2023-08-06T08:01:59;8.90;;;7.03;;
8113;SDS011;4099;52.684;9.918;2023-08-06T08:07:01;8.43;;;7.63;;
8113;SDS011;4099;52.684;9.918;2023-08-06T08:12:06;7.80;;;7.10;;
8113;SDS011;4099;52.684;9.918;2023-08-06T08:17:08;8.53;;;7.77;;
8113;SDS011;4099;52.684;9.918;2023-08-06T08:22:11;7.20;;;6.60;;
8113;SDS011;4099;52.684;9.918;2023-08-06T08:27:14;7.10;;;6.43;;
8113;SDS011;4099;52.684;9.918;2023-08-06T08:32:16;6.73;;;6.13;;
8113;SDS011;4099;52.684;9.918;2023-08-06T08:37:18;6.03;;;5.53;;
8113;SDS011;4099;52.684;9.918;2023-08-06T08:42:22;6.03;;;5.43;;
8113;SDS011;4099;52.684;9.918;2023-08-06T08:47:24;6.07;;;5.50;;
8113;SDS011;4099;52.684;9.918;2023-08-06T08:52:26;6.17;;;5.63;;
8113;SDS011;4099;52.684;9.918;2023-08-06T08:57:31;5.37;;;4.97;;
8113;SDS011;4099;52.684;9.918;2023-08-06T09:02:33;4.80;;;4.40;;
8113;SDS011;4099;52.684;9.918;2023-08-06T09:07:38;4.87;;;4.47;;
8113;SDS011;4099;52.684;9.918;2023-08-06T09:12:45;4.70;;;4.30;;
8113;SDS011;4099;52.684;9.918;2023-08-06T09:17:49;8.90;;;3.83;;
8113;SDS011;4099;52.684;9.918;2023-08-06T09:22:52;4.30;;;4.00;;
8113;SDS011;4099;52.684;9.918;2023-08-06T09:27:56;3.73;;;3.43;;
8113;SDS011;4099;52.684;9.918;2023-08-06T09:32:57;4.00;;;3.70;;
8113;SDS011;4099;52.684;9.918;2023-08-06T09:38:05;5.37;;;3.70;;
8113;SDS011;4099;52.684;9.918;2023-08-06T09:43:10;3.27;;;3.07;;
8113;SDS011;4099;52.684;9.918;2023-08-06T09:48:14;3.10;;;2.90;;
8113;SDS011;4099;52.684;9.918;2023-08-06T09:53:16;3.60;;;3.30;;
8113;SDS011;4099;52.684;9.918;2023-08-06T09:58:21;4.00;;;3.37;;
8113;SDS011;4099;52.684;9.918;2023-08-06T10:03:26;3.30;;;3.10;;
8113;SDS011;4099;52.684;9.918;2023-08-06T10:08:29;3.93;;;3.50;;
8113;SDS011;4099;52.684;9.918;2023-08-06T10:13:32;3.70;;;3.40;;
8113;SDS011;4099;52.684;9.918;2023-08-06T10:18:36;3.90;;;3.60;;
8113;SDS011;4099;52.684;9.918;2023-08-06T10:23:40;3.40;;;3.20;;
8113;SDS011;4099;52.684;9.918;2023-08-06T10:28:43;4.23;;;3.90;;
8113;SDS011;4099;52.684;9.918;2023-08-06T10:33:46;4.23;;;3.83;;
8113;SDS011;4099;52.684;9.918;2023-08-06T10:38:49;4.00;;;3.60;;
8113;SDS011;4099;52.684;9.918;2023-08-06T10:43:53;3.80;;;3.50;;
8113;SDS011;4099;52.684;9.918;2023-08-06T10:49:07;3.30;;;3.00;;
8113;SDS011;4099;52.684;9.918;2023-08-06T10:54:09;3.77;;;3.37;;
8113;SDS011;4099;52.684;9.918;2023-08-06T10:59:14;3.37;;;3.10;;
8113;SDS011;4099;52.684;9.918;2023-08-06T11:04:16;2.93;;;2.73;;
8113;SDS011;4099;52.684;9.918;2023-08-06T11:09:18;3.33;;;3.03;;
8113;SDS011;4099;52.684;9.918;2023-08-06T11:14:22;3.10;;;2.90;;
8113;SDS011;4099;52.684;9.918;2023-08-06T11:19:23;2.73;;;2.53;;
8113;SDS011;4099;52.684;9.918;2023-08-06T11:24:25;2.80;;;2.60;;
8113;SDS011;4099;52.684;9.918;2023-08-06T11:29:29;2.60;;;2.40;;
8113;SDS011;4099;52.684;9.918;2023-08-06T11:34:30;2.37;;;2.17;;
8113;SDS011;4099;52.684;9.918;2023-08-06T11:39:33;2.53;;;2.33;;
8113;SDS011;4099;52.684;9.918;2023-08-06T11:44:36;2.40;;;2.30;;
8113;SDS011;4099;52.684;9.918;2023-08-06T11:49:42;2.77;;;2.57;;
8113;SDS011;4099;52.684;9.918;2023-08-06T11:54:51;2.70;;;2.50;;
8113;SDS011;4099;52.684;9.918;2023-08-06T12:00:04;2.80;;;2.60;;
8113;SDS011;4099;52.684;9.918;2023-08-06T12:05:13;2.10;;;2.00;;
8113;SDS011;4099;52.684;9.918;2023-08-06T12:10:16;2.37;;;2.27;;
8113;SDS011;4099;52.684;9.918;2023-08-06T12:15:21;2.40;;;2.30;;
8113;SDS011;4099;52.684;9.918;2023-08-06T12:20:24;2.40;;;2.20;;
8113;SDS011;4099;52.684;9.918;2023-08-06T12:25:25;2.50;;;2.30;;
8113;SDS011;4099;52.684;9.918;2023-08-06T12:30:30;2.30;;;2.20;;
8113;SDS011;4099;52.684;9.918;2023-08-06T12:35:32;3.03;;;2.03;;
8113;SDS011;4099;52.684;9.918;2023-08-06T12:40:33;2.40;;;2.30;;
8113;SDS011;4099;52.684;9.918;2023-08-06T12:45:37;2.37;;;2.27;;
8113;SDS011;4099;52.684;9.918;2023-08-06T12:50:38;2.50;;;2.30;;
8113;SDS011;4099;52.684;9.918;2023-08-06T12:55:41;3.00;;;2.37;;
8113;SDS011;4099;52.684;9.918;2023-08-06T13:00:44;2.40;;;2.30;;
8113;SDS011;4099;52.684;9.918;2023-08-06T13:05:46;4.97;;;2.60;;
8113;SDS011;4099;52.684;9.918;2023-08-06T13:10:48;2.60;;;2.40;;
8113;SDS011;4099;52.684;9.918;2023-08-06T13:15:51;2.40;;;2.20;;
8113;SDS011;4099;52.684;9.918;2023-08-06T13:20:53;2.37;;;2.17;;
8113;SDS011;4099;52.684;9.918;2023-08-06T13:25:55;2.60;;;2.40;;
8113;SDS011;4099;52.684;9.918;2023-08-06T13:31:01;2.50;;;2.30;;
8113;SDS011;4099;52.684;9.918;2023-08-06T13:36:02;3.10;;;2.50;;
8113;SDS011;4099;52.684;9.918;2023-08-06T13:41:04;2.70;;;2.50;;
8113;SDS011;4099;52.684;9.918;2023-08-06T13:46:07;3.00;;;2.50;;
8113;SDS011;4099;52.684;9.918;2023-08-06T13:51:14;2.67;;;2.57;;
8113;SDS011;4099;52.684;9.918;2023-08-06T13:56:16;2.70;;;2.50;;
8113;SDS011;4099;52.684;9.918;2023-08-06T14:01:19;2.40;;;2.30;;
8113;SDS011;4099;52.684;9.918;2023-08-06T14:06:21;2.30;;;2.20;;
8113;SDS011;4099;52.684;9.918;2023-08-06T14:11:23;2.43;;;2.30;;
8113;SDS011;4099;52.684;9.918;2023-08-06T14:16:26;2.60;;;2.40;;
8113;SDS011;4099;52.684;9.918;2023-08-06T14:21:28;2.57;;;2.40;;
8113;SDS011;4099;52.684;9.918;2023-08-06T14:26:30;2.30;;;2.20;;
8113;SDS011;4099;52.684;9.918;2023-08-06T14:31:34;1.80;;;1.70;;
8113;SDS011;4099;52.684;9.918;2023-08-06T14:36:36;2.60;;;2.40;;
8113;SDS011;4099;52.684;9.918;2023-08-06T14:41:38;2.67;;;2.47;;
8113;SDS011;4099;52.684;9.918;2023-08-06T14:46:41;2.50;;;2.30;;
8113;SDS011;4099;52.684;9.918;2023-08-06T14:51:43;2.80;;;2.60;;
8113;SDS011;4099;52.684;9.918;2023-08-06T14:56:44;2.80;;;2.60;;
8113;SDS011;4099;52.684;9.918;2023-08-06T15:01:48;2.60;;;2.37;;
8113;SDS011;4099;52.684;9.918;2023-08-06T15:06:51;2.40;;;2.30;;
8113;SDS011;4099;52.684;9.918;2023-08-06T15:11:53;2.97;;;2.73;;
8113;SDS011;4099;52.684;9.918;2023-08-06T15:16:56;2.40;;;2.20;;
8113;SDS011;4099;52.684;9.918;2023-08-06T15:21:58;2.40;;;2.30;;
8113;SDS011;4099;52.684;9.918;2023-08-06T15:27:00;2.70;;;2.50;;
8113;SDS011;4099;52.684;9.918;2023-08-06T15:32:04;3.13;;;2.50;;
8113;SDS011;4099;52.684;9.918;2023-08-06T15:37:06;3.50;;;3.07;;
8113;SDS011;4099;52.684;9.918;2023-08-06T15:42:08;3.00;;;2.80;;
8113;SDS011;4099;52.684;9.918;2023-08-06T15:47:11;3.50;;;2.97;;
8113;SDS011;4099;52.684;9.918;2023-08-06T15:52:13;4.00;;;3.43;;
8113;SDS011;4099;52.684;9.918;2023-08-06T15:57:17;4.87;;;4.27;;
8113;SDS011;4099;52.684;9.918;2023-08-06T16:02:20;4.37;;;4.00;;
8113;SDS011;4099;52.684;9.918;2023-08-06T16:07:24;5.00;;;4.50;;
8113;SDS011;4099;52.684;9.918;2023-08-06T16:12:26;4.70;;;4.30;;
8113;SDS011;4099;52.684;9.918;2023-08-06T16:17:29;3.70;;;3.47;;
8113;SDS011;4099;52.684;9.918;2023-08-06T16:22:32;3.77;;;3.47;;
8113;SDS011;4099;52.684;9.918;2023-08-06T16:27:34;4.17;;;3.70;;
8113;SDS011;4099;52.684;9.918;2023-08-06T16:32:37;3.93;;;3.53;;
8113;SDS011;4099;52.684;9.918;2023-08-06T16:37:39;4.80;;;4.30;;
8113;SDS011;4099;52.684;9.918;2023-08-06T16:42:41;4.20;;;3.90;;
8113;SDS011;4099;52.684;9.918;2023-08-06T16:47:44;4.23;;;3.83;;
8113;SDS011;4099;52.684;9.918;2023-08-06T16:52:46;4.13;;;3.80;;
8113;SDS011;4099;52.684;9.918;2023-08-06T16:57:48;3.60;;;3.30;;
8113;SDS011;4099;52.684;9.918;2023-08-06T17:02:52;3.90;;;3.40;;
8113;SDS011;4099;52.684;9.918;2023-08-06T17:07:54;3.20;;;3.00;;
8113;SDS011;4099;52.684;9.918;2023-08-06T17:12:56;4.07;;;3.50;;
8113;SDS011;4099;52.684;9.918;2023-08-06T17:17:59;3.50;;;3.20;;
8113;SDS011;4099;52.684;9.918;2023-08-06T17:23:01;3.97;;;3.50;;
8113;SDS011;4099;52.684;9.918;2023-08-06T17:28:03;6.03;;;3.70;;
8113;SDS011;4099;52.684;9.918;2023-08-06T17:33:07;4.53;;;4.10;;
8113;SDS011;4099;52.684;9.918;2023-08-06T17:38:09;4.00;;;3.70;;
8113;SDS011;4099;52.684;9.918;2023-08-06T17:43:12;5.00;;;4.00;;
8113;SDS011;4099;52.684;9.918;2023-08-06T17:48:15;3.77;;;3.47;;
8113;SDS011;4099;52.684;9.918;2023-08-06T17:53:17;3.90;;;3.60;;
8113;SDS011;4099;52.684;9.918;2023-08-06T17:58:19;4.20;;;3.80;;
8113;SDS011;4099;52.684;9.918;2023-08-06T18:03:22;4.70;;;4.30;;
8113;SDS011;4099;52.684;9.918;2023-08-06T18:08:24;4.93;;;4.53;;
8113;SDS011;4099;52.684;9.918;2023-08-06T18:13:26;4.70;;;4.33;;
8113;SDS011;4099;52.684;9.918;2023-08-06T18:18:30;5.20;;;4.70;;
8113;SDS011;4099;52.684;9.918;2023-08-06T18:23:31;5.40;;;4.47;;
8113;SDS011;4099;52.684;9.918;2023-08-06T18:28:33;4.67;;;4.13;;
8113;SDS011;4099;52.684;9.918;2023-08-06T18:33:38;4.23;;;3.87;;
8113;SDS011;4099;52.684;9.918;2023-08-06T18:38:40;3.93;;;3.60;;
8113;SDS011;4099;52.684;9.918;2023-08-06T18:43:42;4.17;;;3.80;;
8113;SDS011;4099;52.684;9.918;2023-08-06T18:48:46;3.73;;;3.43;;
8113;SDS011;4099;52.684;9.918;2023-08-06T18:53:48;3.53;;;3.23;;
8113;SDS011;4099;52.684;9.918;2023-08-06T18:58:50;4.03;;;3.30;;
8113;SDS011;4099;52.684;9.918;2023-08-06T19:03:53;3.60;;;3.30;;
8113;SDS011;4099;52.684;9.918;2023-08-06T19:08:55;4.53;;;3.10;;
8113;SDS011;4099;52.684;9.918;2023-08-06T19:13:57;3.50;;;3.20;;
8113;SDS011;4099;52.684;9.918;2023-08-06T19:19:00;3.13;;;2.83;;
8113;SDS011;4099;52.684;9.918;2023-08-06T19:24:02;4.80;;;3.20;;
8113;SDS011;4099;52.684;9.918;2023-08-06T19:29:04;3.23;;;2.90;;
8113;SDS011;4099;52.684;9.918;2023-08-06T19:34:07;3.87;;;3.27;;
8113;SDS011;4099;52.684;9.918;2023-08-06T19:39:09;3.47;;;3.17;;
8113;SDS011;4099;52.684;9.918;2023-08-06T19:44:11;4.13;;;3.60;;
8113;SDS011;4099;52.684;9.918;2023-08-06T19:49:15;5.97;;;3.70;;
8113;SDS011;4099;52.684;9.918;2023-08-06T19:54:16;5.10;;;3.77;;
8113;SDS011;4099;52.684;9.918;2023-08-06T19:59:19;6.00;;;3.70;;
8113;SDS011;4099;52.684;9.918;2023-08-06T20:04:22;4.63;;;4.13;;
8113;SDS011;4099;52.684;9.918;2023-08-06T20:09:24;8.40;;;4.23;;
8113;SDS011;4099;52.684;9.918;2023-08-06T20:14:26;4.97;;;4.30;;
8113;SDS011;4099;52.684;9.918;2023-08-06T20:19:29;5.80;;;5.30;;
8113;SDS011;4099;52.684;9.918;2023-08-06T20:24:31;7.73;;;6.13;;
8113;SDS011;4099;52.684;9.918;2023-08-06T20:29:33;9.80;;;5.80;;
8113;SDS011;4099;52.684;9.918;2023-08-06T20:34:36;5.37;;;4.87;;
8113;SDS011;4099;52.684;9.918;2023-08-06T20:39:38;5.47;;;4.97;;
8113;SDS011;4099;52.684;9.918;2023-08-06T20:44:40;6.13;;;4.80;;
8113;SDS011;4099;52.684;9.918;2023-08-06T20:49:43;8.10;;;5.27;;
8113;SDS011;4099;52.684;9.918;2023-08-06T20:54:45;5.90;;;5.40;;
8113;SDS011;4099;52.684;9.918;2023-08-06T20:59:47;6.73;;;5.90;;
8113;SDS011;4099;52.684;9.918;2023-08-06T21:04:50;5.17;;;4.67;;
8113;SDS011;4099;52.684;9.918;2023-08-06T21:09:52;6.27;;;5.10;;
8113;SDS011;4099;52.684;9.918;2023-08-06T21:14:54;5.47;;;4.77;;
8113;SDS011;4099;52.684;9.918;2023-08-06T21:19:57;7.70;;;4.73;;
8113;SDS011;4099;52.684;9.918;2023-08-06T21:24:59;5.40;;;4.67;;
8113;SDS011;4099;52.684;9.918;2023-08-06T21:30:01;7.87;;;5.07;;
8113;SDS011;4099;52.684;9.918;2023-08-06T21:35:05;5.80;;;5.03;;
8113;SDS011;4099;52.684;9.918;2023-08-06T21:40:08;5.83;;;5.13;;
8113;SDS011;4099;52.684;9.918;2023-08-06T21:45:10;5.30;;;4.80;;
8113;SDS011;4099;52.684;9.918;2023-08-06T21:50:14;6.57;;;4.83;;
8113;SDS011;4099;52.684;9.918;2023-08-06T21:55:16;5.97;;;4.70;;
8113;SDS011;4099;52.684;9.918;2023-08-06T22:00:18;6.73;;;5.03;;
8113;SDS011;4099;52.684;9.918;2023-08-06T22:05:21;8.17;;;5.30;;
8113;SDS011;4099;52.684;9.918;2023-08-06T22:10:23;6.23;;;5.23;;
8113;SDS011;4099;52.684;9.918;2023-08-06T22:15:26;5.57;;;5.00;;
8113;SDS011;4099;52.684;9.918;2023-08-06T22:20:29;5.57;;;4.80;;
8113;SDS011;4099;52.684;9.918;2023-08-06T22:25:31;7.10;;;5.17;;
8113;SDS011;4099;52.684;9.918;2023-08-06T22:30:33;6.73;;;4.50;;
8113;SDS011;4099;52.684;9.918;2023-08-06T22:35:37;5.10;;;4.43;;
8113;SDS011;4099;52.684;9.918;2023-08-06T22:40:39;5.20;;;4.50;;
8113;SDS011;4099;52.684;9.918;2023-08-06T22:45:41;6.00;;;4.60;;
8113;SDS011;4099;52.684;9.918;2023-08-06T22:50:44;6.00;;;4.87;;
8113;SDS011;4099;52.684;9.918;2023-08-06T22:55:46;5.50;;;4.13;;
8113;SDS011;4099;52.684;9.918;2023-08-06T23:00:48;7.00;;;4.57;;
8113;SDS011;4099;52.684;9.918;2023-08-06T23:05:51;5.97;;;4.33;;
8113;SDS011;4099;52.684;9.918;2023-08-06T23:10:53;9.03;;;4.50;;
8113;SDS011;4099;52.684;9.918;2023-08-06T23:15:55;5.17;;;4.30;;
8113;SDS011;4099;52.684;9.918;2023-08-06T23:20:58;5.70;;;4.27;;
8113;SDS011;4099;52.684;9.918;2023-08-06T23:26:00;7.90;;;5.43;;
8113;SDS011;4099;52.684;9.918;2023-08-06T23:31:03;5.00;;;4.60;;
8113;SDS011;4099;52.684;9.918;2023-08-06T23:36:06;5.07;;;4.03;;
8113;SDS011;4099;52.684;9.918;2023-08-06T23:41:08;5.30;;;4.80;;
8113;SDS011;4099;52.684;9.918;2023-08-06T23:46:10;5.40;;;4.40;;
8113;SDS011;4099;52.684;9.918;2023-08-06T23:51:13;4.83;;;3.93;;
8113;SDS011;4099;52.684;9.918;2023-08-06T23:56:15;4.83;;;3.97;;
